Map

Track Data

SID SEASON NUMBER BASIN SUBBASIN NAME ISO_TIME NATURE LAT LON WMO_WIND WMO_PRES WMO_AGENCY TRACK_TYPE DIST2LAND LANDFALL IFLAG USA_AGENCY USA_ATCF_ID USA_LAT USA_LON USA_RECORD USA_STATUS USA_WIND USA_PRES USA_SSHS USA_R34_NE USA_R34_SE USA_R34_SW USA_R34_NW USA_R50_NE USA_R50_SE USA_R50_SW USA_R50_NW USA_R64_NE USA_R64_SE USA_R64_SW USA_R64_NW USA_POCI USA_ROCI USA_RMW USA_EYE TOKYO_LAT TOKYO_LON TOKYO_GRADE TOKYO_WIND TOKYO_PRES TOKYO_R50_DIR TOKYO_R50_LONG TOKYO_R50_SHORT TOKYO_R30_DIR TOKYO_R30_LONG TOKYO_R30_SHORT TOKYO_LAND CMA_LAT CMA_LON CMA_CAT CMA_WIND CMA_PRES HKO_LAT HKO_LON HKO_CAT HKO_WIND HKO_PRES NEWDELHI_LAT NEWDELHI_LON NEWDELHI_GRADE NEWDELHI_WIND NEWDELHI_PRES NEWDELHI_CI NEWDELHI_DP NEWDELHI_POCI REUNION_LAT REUNION_LON REUNION_TYPE REUNION_WIND REUNION_PRES REUNION_TNUM REUNION_CI REUNION_RMW REUNION_R34_NE REUNION_R34_SE REUNION_R34_SW REUNION_R34_NW REUNION_R50_NE REUNION_R50_SE REUNION_R50_SW REUNION_R50_NW REUNION_R64_NE REUNION_R64_SE REUNION_R64_SW REUNION_R64_NW BOM_LAT BOM_LON BOM_TYPE BOM_WIND BOM_PRES BOM_TNUM BOM_CI BOM_RMW BOM_R34_NE BOM_R34_SE BOM_R34_SW BOM_R34_NW BOM_R50_NE BOM_R50_SE BOM_R50_SW BOM_R50_NW BOM_R64_NE BOM_R64_SE BOM_R64_SW BOM_R64_NW BOM_ROCI BOM_POCI BOM_EYE BOM_POS_METHOD BOM_PRES_METHOD NADI_LAT NADI_LON NADI_CAT NADI_WIND NADI_PRES WELLINGTON_LAT WELLINGTON_LON WELLINGTON_WIND WELLINGTON_PRES DS824_LAT DS824_LON DS824_STAGE DS824_WIND DS824_PRES TD9636_LAT TD9636_LON TD9636_STAGE TD9636_WIND TD9636_PRES TD9635_LAT TD9635_LON TD9635_WIND TD9635_PRES TD9635_ROCI NEUMANN_LAT NEUMANN_LON NEUMANN_CLASS NEUMANN_WIND NEUMANN_PRES MLC_LAT MLC_LON MLC_CLASS MLC_WIND MLC_PRES USA_GUST BOM_GUST BOM_GUST_PER REUNION_GUST REUNION_GUST_PER USA_SEAHGT USA_SEARAD_NE USA_SEARAD_SE USA_SEARAD_SW USA_SEARAD_NW STORM_SPEED STORM_DIR
1996210N05156 1996 59 WP MM KIRK 1996-07-28 00:00:00 NR 5.30000 155.800 main 1045 1040 O_____________ jtwc_wp WP131996 5.30000 155.800 15 -1 5 293
1996210N05156 1996 59 WP MM KIRK 1996-07-28 03:00:00 NR 5.40001 155.563 main 1045 1036 P_____________ WP131996 5.40001 155.563 15 -1 5 292
1996210N05156 1996 59 WP MM KIRK 1996-07-28 06:00:00 NR 5.50000 155.300 main 1041 1035 O_____________ jtwc_wp WP131996 5.50000 155.300 15 -1 6 290
1996210N05156 1996 59 WP MM KIRK 1996-07-28 09:00:00 NR 5.60001 155.000 main 1035 1030 P_____________ WP131996 5.60001 155.000 15 -1 6 288
1996210N05156 1996 59 WP MM KIRK 1996-07-28 12:00:00 NR 5.70000 154.700 main 1031 1027 O_____________ jtwc_wp WP131996 5.70000 154.700 15 -1 6 290
1996210N05156 1996 59 WP MM KIRK 1996-07-28 15:00:00 NR 5.79998 154.442 main 1028 1024 P_____________ WP131996 5.79998 154.442 15 -1 5 292
1996210N05156 1996 59 WP MM KIRK 1996-07-28 18:00:00 NR 5.90000 154.200 main 1031 1027 O_____________ jtwc_wp WP131996 5.90000 154.200 15 -1 5 293
1996210N05156 1996 59 WP MM KIRK 1996-07-28 21:00:00 NR 5.99995 153.972 main 1034 1026 P_____________ WP131996 5.99995 153.972 15 -1 5 292
1996210N05156 1996 59 WP MM KIRK 1996-07-29 00:00:00 NR 6.10000 153.700 main 1034 1027 O_____________ jtwc_wp WP131996 6.10000 153.700 15 -1 7 287
1996210N05156 1996 59 WP MM KIRK 1996-07-29 03:00:00 NR 6.20000 153.330 main 1032 1026 P_____________ WP131996 6.20000 153.330 15 -1 8 284
1996210N05156 1996 59 WP MM KIRK 1996-07-29 06:00:00 NR 6.30000 152.900 main 1032 1028 O_____________ jtwc_wp WP131996 6.30000 152.900 15 -1 9 283
1996210N05156 1996 59 WP MM KIRK 1996-07-29 09:00:00 NR 6.39246 152.465 main 1035 1029 P_____________ WP131996 6.39246 152.465 15 -1 9 283
1996210N05156 1996 59 WP MM KIRK 1996-07-29 12:00:00 NR 6.50000 152.000 main 1038 1035 O_____________ jtwc_wp WP131996 6.50000 152.000 15 -1 10 285
1996210N05156 1996 59 WP MM KIRK 1996-07-29 15:00:00 NR 6.64240 151.530 main 1044 1044 P_____________ WP131996 6.64240 151.530 17 -1 10 287
1996210N05156 1996 59 WP MM KIRK 1996-07-29 18:00:00 NR 6.80000 151.000 main 1064 1062 O_____________ jtwc_wp WP131996 6.80000 151.000 20 -1 12 285
1996210N05156 1996 59 WP MM KIRK 1996-07-29 21:00:00 NR 6.95000 150.372 main 1072 1056 P_____________ WP131996 6.95000 150.372 20 -1 13 283
1996210N05156 1996 59 WP MM KIRK 1996-07-30 00:00:00 NR 7.10000 149.700 main 1062 1057 O_____________ jtwc_wp WP131996 7.10000 149.700 20 -1 14 283
1996210N05156 1996 59 WP MM KIRK 1996-07-30 03:00:00 NR 7.25747 149.035 main 1068 1061 P_____________ WP131996 7.25747 149.035 22 -1 13 283
1996210N05156 1996 59 WP MM KIRK 1996-07-30 06:00:00 NR 7.40000 148.400 main 1070 1068 O_____________ jtwc_wp WP131996 7.40000 148.400 25 -1 12 282
1996210N05156 1996 59 WP MM KIRK 1996-07-30 09:00:00 NR 7.50737 147.835 main 1076 1076 P_____________ WP131996 7.50737 147.835 25 -1 11 280
1996210N05156 1996 59 WP MM KIRK 1996-07-30 12:00:00 NR 7.60000 147.300 main 1086 1086 O_____________ jtwc_wp WP131996 7.60000 147.300 25 -1 11 280
1996210N05156 1996 59 WP MM KIRK 1996-07-30 15:00:00 NR 7.69998 146.735 main 1098 1098 P_____________ WP131996 7.69998 146.735 25 -1 11 280
1996210N05156 1996 59 WP MM KIRK 1996-07-30 18:00:00 NR 7.80000 146.200 main 1110 1110 O_____________ jtwc_wp WP131996 7.80000 146.200 25 -1 10 282
1996210N05156 1996 59 WP MM KIRK 1996-07-30 21:00:00 NR 7.90744 145.720 main 1125 1125 P_____________ WP131996 7.90744 145.720 25 -1 9 283
1996210N05156 1996 59 WP MM KIRK 1996-07-31 00:00:00 NR 8.00000 145.300 main 1140 1140 O_____________ jtwc_wp WP131996 8.00000 145.300 25 -1 8 281
1996210N05156 1996 59 WP MM KIRK 1996-07-31 03:00:00 NR 8.06493 144.935 main 1158 1158 P_____________ WP131996 8.06493 144.935 25 -1 7 278
1996210N05156 1996 59 WP MM KIRK 1996-07-31 06:00:00 NR 8.10000 144.600 main 1164 1164 O_____________ jtwc_wp WP131996 8.10000 144.600 25 -1 7 273
1996210N05156 1996 59 WP MM KIRK 1996-07-31 09:00:00 NR 8.09997 144.250 main 1173 1173 P_____________ WP131996 8.09997 144.250 22 -1 7 270
1996210N05156 1996 59 WP MM KIRK 1996-07-31 12:00:00 NR 8.10000 143.900 main 1181 1181 O_____________ jtwc_wp WP131996 8.10000 143.900 20 -1 7 273
1996210N05156 1996 59 WP MM KIRK 1996-07-31 15:00:00 NR 8.13497 143.550 main 1190 1193 P_____________ WP131996 8.13497 143.550 20 -1 7 278
1996210N05156 1996 59 WP MM KIRK 1996-07-31 18:00:00 NR 8.20000 143.200 main 1214 1214 O_____________ jtwc_wp WP131996 8.20000 143.200 20 -1 7 282
1996210N05156 1996 59 WP MM KIRK 1996-07-31 21:00:00 NR 8.28493 142.865 main 1224 1215 P_____________ WP131996 8.28493 142.865 20 -1 7 286
1996210N05156 1996 59 WP MM KIRK 1996-08-01 00:00:00 NR 8.40000 142.500 main 1217 1211 O_____________ jtwc_wp WP131996 8.40000 142.500 20 -1 8 289
1996210N05156 1996 59 WP MM KIRK 1996-08-01 03:00:00 NR 8.55000 142.065 main 1211 1210 P_____________ WP131996 8.55000 142.065 20 -1 9 289
1996210N05156 1996 59 WP MM KIRK 1996-08-01 06:00:00 NR 8.70000 141.600 main 1214 1207 O_____________ jtwc_wp WP131996 8.70000 141.600 20 -1 9 285
1996210N05156 1996 59 WP MM KIRK 1996-08-01 09:00:00 NR 8.79245 141.150 main 1208 1203 P_____________ WP131996 8.79245 141.150 20 -1 9 283
1996210N05156 1996 59 WP MM KIRK 1996-08-01 12:00:00 NR 8.90000 140.700 main 1208 1201 O_____________ jtwc_wp WP131996 8.90000 140.700 20 -1 9 288
1996210N05156 1996 59 WP MM KIRK 1996-08-01 15:00:00 NR 9.07745 140.250 main 1211 1203 P_____________ WP131996 9.07745 140.250 20 -1 10 294
1996210N05156 1996 59 WP MM KIRK 1996-08-01 18:00:00 NR 9.30000 139.800 main 1211 1207 O_____________ jtwc_wp WP131996 9.30000 139.800 20 -1 10 297
1996210N05156 1996 59 WP MM KIRK 1996-08-01 21:00:00 NR 9.53497 139.342 main 1214 1214 P_____________ WP131996 9.53497 139.342 20 -1 10 299
1996210N05156 1996 59 WP MM KIRK 1996-08-02 00:00:00 NR 9.80000 138.900 main 1232 1228 O_____________ jtwc_wp WP131996 9.80000 138.900 20 -1 10 303
1996210N05156 1996 59 WP MM KIRK 1996-08-02 03:00:00 NR 10.0925 138.485 main 1252 1249 P_____________ WP131996 10.0925 138.485 20 -1 10 307
1996210N05156 1996 59 WP MM KIRK 1996-08-02 06:00:00 NR 10.4000 138.100 main 1274 1272 O_____________ jtwc_wp WP131996 10.4000 138.100 20 -1 10 310
1996210N05156 1996 59 WP MM KIRK 1996-08-02 09:00:00 NR 10.6999 137.742 main 1264 1241 P_____________ WP131996 10.6999 137.742 20 -1 9 311
1996210N05156 1996 59 WP MM KIRK 1996-08-02 12:00:00 NR 11.0000 137.400 main 1241 1213 O_____________ jtwc_wp WP131996 11.0000 137.400 20 -1 8 309
1996210N05156 1996 59 WP MM KIRK 1996-08-02 15:00:00 NR 11.2324 137.072 main 1213 1177 P_____________ WP131996 11.2324 137.072 20 -1 9 311
1996210N05156 1996 59 WP MM KIRK 1996-08-02 18:00:00 NR 11.6000 136.700 main 1180 1151 O_____________ jtwc_wp WP131996 11.6000 136.700 20 -1 13 320
1996210N05156 1996 59 WP MM KIRK 1996-08-02 21:00:00 NR 12.2301 136.222 main 1141 1100 P_____________ WP131996 12.2301 136.222 20 -1 18 327
1996210N05156 1996 59 WP MM KIRK 1996-08-03 00:00:00 NR 13.1000 135.700 main 1102 1070 O_____________ jtwc_wp WP131996 13.1000 135.700 20 -1 22 332
1996210N05156 1996 59 WP MM KIRK 1996-08-03 03:00:00 NR 14.1326 135.178 main 1072 1049 P_____________ WP131996 14.1326 135.178 22 -1 24 336
1996210N05156 1996 59 WP MM KIRK 1996-08-03 06:00:00 NR 15.3000 134.700 main 1052 1049 O_____________ jtwc_wp WP131996 15.3000 134.700 25 -1 25 341
1996210N05156 1996 59 WP MM KIRK 1996-08-03 09:00:00 NR 16.4849 134.319 main 1063 1063 P_____________ WP131996 16.4849 134.319 25 -1 25 344
1996210N05156 1996 59 WP MM KIRK 1996-08-03 12:00:00 NR 17.7000 134.000 main 1101 1101 O_____________ jtwc_wp WP131996 17.7000 134.000 25 -1 25 347
1996210N05156 1996 59 WP MM KIRK 1996-08-03 15:00:00 NR 18.9147 133.729 main 1138 1138 P_____________ WP131996 18.9147 133.729 25 -1 26 349
1996210N05156 1996 59 WP MM KIRK 1996-08-03 18:00:00 TS 20.2800 133.460 1004 tokyo main 1193 1096 OO____________ jtwc_wp WP131996 20.1000 133.400 25 -1 21.0000 133.700 2 1004 0 0 0 27 344
1996210N05156 1996 59 WP MM KIRK 1996-08-03 21:00:00 TS 21.4627 132.937 main 1083 929 PP____________ WP131996 21.2676 132.881 25 -1 21.8529 133.051 2 1004 0 0 28 337
1996210N05156 1996 59 WP MM KIRK 1996-08-04 00:00:00 TS 22.8667 132.300 1004 tokyo main 918 823 OOOO__________ jtwc_wp WP131996 22.3000 132.300 25 -1 22.7000 132.400 2 1004 0 0 0 23.0000 131.000 1 23 1004 25.5000 133.300 TD 30 1000 25 337
1996210N05156 1996 59 WP MM KIRK 1996-08-04 03:00:00 TS 23.7651 131.859 main 812 742 PPPP__________ WP131996 23.1325 131.747 27 -1 23.5175 131.775 2 1003 0 0 23.6451 131.214 1 23 1003 25.6452 132.893 TD 32 999 17 337
1996210N05156 1996 59 WP MM KIRK 1996-08-04 06:00:00 TS 24.4286 131.557 1002 tokyo main 742 684 OOOO__________ jtwc_wp WP131996 23.8000 131.300 30 -1 24.2000 131.300 2 1002 0 0 0 24.2000 131.300 1 23 1002 25.8000 132.500 TS 35 998 12 338
1996210N05156 1996 59 WP MM KIRK 1996-08-04 09:00:00 TS 24.9042 131.357 main 684 638 PPPP__________ WP131996 24.3947 131.039 30 -1 24.6296 131.074 2 1002 0 0 24.6151 131.180 1 23 1002 25.9774 132.135 TS 35 998 9 338
1996210N05156 1996 59 WP MM KIRK 1996-08-04 12:00:00 TS 25.2750 131.175 1002 tokyo main 638 592 OOOO__________ jtwc_wp WP131996 24.9000 130.900 30 -1 25.0000 131.000 2 1002 0 0 0 25.0000 131.000 1 23 1002 26.2000 131.800 TS 35 998 9 341
1996210N05156 1996 59 WP MM KIRK 1996-08-04 15:00:00 TS 25.7362 131.039 main 592 536 PPPP__________ WP131996 25.3874 130.785 30 -1 25.5500 130.950 2 1000 0 0 25.5000 130.950 1 26 1001 26.5075 131.470 TS 35 998 9 346
1996210N05156 1996 59 WP MM KIRK 1996-08-04 18:00:00 TS 26.1750 130.925 998 tokyo main 536 502 OOOO__________ jtwc_wp WP131996 25.8000 130.700 30 -1 26.1000 130.900 2 998 0 0 0 26.0000 130.900 1 29 1000 26.8000 131.200 TS 35 998 8 344
1996210N05156 1996 59 WP MM KIRK 1996-08-04 21:00:00 TS 26.5250 130.784 main 502 468 PPPP__________ WP131996 26.1225 130.592 30 -1 26.5600 130.765 2 998 0 0 26.4450 130.758 1 29 999 26.9724 131.020 TS 35 998 7 338
1996210N05156 1996 59 WP MM KIRK 1996-08-05 00:00:00 TS 26.8000 130.650 998 tokyo main 468 446 OOOO__________ jtwc_wp WP131996 26.4000 130.500 30 -1 26.9000 130.600 2 998 0 0 0 26.8000 130.600 1 29 998 27.1000 130.900 TS 35 998 5 335
1996210N05156 1996 59 WP MM KIRK 1996-08-05 03:00:00 TS 27.0168 130.531 main 446 424 PPPP__________ WP131996 26.7075 130.413 30 -1 27.0650 130.420 2 998 0 0 27.0450 130.477 1 29 998 27.2499 130.815 TS 37 996 4 336
1996210N05156 1996 59 WP MM KIRK 1996-08-05 06:00:00 TS 27.2000 130.450 998 tokyo main 424 402 OOOO__________ jtwc_wp WP131996 27.0000 130.400 30 -1 27.2000 130.300 2 998 0 0 0 27.2000 130.400 1 29 998 27.4000 130.700 TS 40 994 4 344
1996210N05156 1996 59 WP MM KIRK 1996-08-05 09:00:00 TS 27.4319 130.400 main 402 380 PPPP__________ WP131996 27.2950 130.512 32 -1 27.5150 130.320 2 997 0 0 27.3150 130.362 1 29 998 27.6027 130.405 TS 40 994 4 0
1996210N05156 1996 59 WP MM KIRK 1996-08-05 12:00:00 TS 27.6000 130.425 996 tokyo main 380 379 OOOO__________ jtwc_wp WP131996 27.5000 130.700 35 0 27.8000 130.400 2 996 0 0 0 27.4000 130.400 1 29 998 27.7000 130.200 TS 40 994 2 34
1996210N05156 1996 59 WP MM KIRK 1996-08-05 15:00:00 TS 27.6269 130.547 main 379 379 PPPP__________ WP131996 27.5450 130.900 40 0 27.9324 130.427 2 996 0 0 27.5225 130.520 1 29 998 27.5076 130.340 TS 42 992 3 95
1996210N05156 1996 59 WP MM KIRK 1996-08-05 18:00:00 TS 27.5750 130.725 35 996 tokyo main 379 379 OOOO__________ jtwc_wp WP131996 27.5000 131.100 45 0 27.9000 130.500 3 35 996 0 9 100 100 0 27.6000 130.700 1 29 998 27.3000 130.600 TS 45 990 3 109
1996210N05156 1996 59 WP MM KIRK 1996-08-05 21:00:00 TS 27.5294 130.875 main 391 391 PPPP__________ WP131996 27.4725 131.257 50 0 27.6806 130.639 3 37 995 0 9 100 100 27.5800 130.885 1 31 996 27.3848 130.720 TS 45 990 3 112
1996210N05156 1996 59 WP MM KIRK 1996-08-06 00:00:00 TS 27.4500 131.075 40 994 tokyo main 392 392 OOOO__________ jtwc_wp WP131996 27.4000 131.400 55 0 27.4000 130.900 3 40 994 0 9 100 100 0 27.5000 131.100 2 34 995 27.5000 130.900 TS 45 990 5 114
1996210N05156 1996 59 WP MM KIRK 1996-08-06 03:00:00 TS 27.3332 131.362 40 994 tokyo main 418 418 POPP__________ WP131996 27.2724 131.535 55 0 27.2000 131.300 3 40 994 0 9 100 100 0 27.4150 131.342 2 39 992 27.4452 131.270 TS 45 990 6 116
1996210N05156 1996 59 WP MM KIRK 1996-08-06 06:00:00 TS 27.2000 131.650 40 994 tokyo main 435 433 OOOO__________ jtwc_wp WP131996 27.1000 131.700 55 0 27.1000 131.600 3 40 994 0 9 100 100 0 27.3000 131.600 2 44 990 27.3000 131.700 TS 45 990 6 121
1996210N05156 1996 59 WP MM KIRK 1996-08-06 09:00:00 TS 27.0256 131.939 40 992 tokyo main 461 461 POPP__________ WP131996 26.9076 131.943 55 0 26.9000 131.900 3 40 992 0 9 100 100 0 27.1725 131.850 2 44 990 27.1224 132.065 TS 45 990 6 127
1996210N05156 1996 59 WP MM KIRK 1996-08-06 12:00:00 TS 26.8250 132.200 40 990 tokyo main 490 490 OOOO__________ jtwc_wp WP131996 26.7000 132.200 55 0 26.7000 132.100 3 40 990 0 9 100 100 0 27.0000 132.100 2 44 990 26.9000 132.400 TS 45 990 6 134
1996210N05156 1996 59 WP MM KIRK 1996-08-06 15:00:00 TS 26.5769 132.451 40 990 tokyo main 521 521 POPP__________ WP131996 26.4999 132.407 55 0 26.4000 132.300 3 40 990 0 9 100 100 0 26.7650 132.358 2 44 990 26.6425 132.738 TS 45 990 7 137
1996210N05156 1996 59 WP MM KIRK 1996-08-06 18:00:00 TS 26.3500 132.700 40 990 tokyo main 549 549 OOOO__________ jtwc_wp WP131996 26.3000 132.600 55 0 26.2000 132.600 3 40 990 0 9 100 100 0 26.5000 132.600 2 44 990 26.4000 133.000 TS 45 990 6 135
1996210N05156 1996 59 WP MM KIRK 1996-08-06 21:00:00 TS 26.1749 132.900 40 990 tokyo main 577 577 POPP__________ WP131996 26.1074 132.785 57 0 26.1000 132.900 3 40 990 0 9 100 100 0 26.2424 132.800 2 44 990 26.2498 133.115 TS 45 990 5 134
1996210N05156 1996 59 WP MM KIRK 1996-08-07 00:00:00 TS 26.0000 133.100 40 990 tokyo main 605 605 OOOO__________ jtwc_wp WP131996 25.9000 133.000 60 0 26.0000 133.200 3 40 990 0 9 100 100 0 26.0000 133.000 2 44 990 26.1000 133.200 TS 45 990 6 134
1996210N05156 1996 59 WP MM KIRK 1996-08-07 03:00:00 TS 25.7907 133.341 40 990 tokyo main 633 633 POPP__________ WP131996 25.6426 133.308 60 0 25.9000 133.400 3 40 990 0 3 150 100 0 25.7776 133.265 2 44 990 25.8426 133.393 TS 45 990 6 135
1996210N05156 1996 59 WP MM KIRK 1996-08-07 06:00:00 TS 25.6000 133.550 40 990 tokyo main 666 666 OOOO__________ jtwc_wp WP131996 25.4000 133.600 60 0 25.8000 133.500 3 40 990 0 3 180 90 0 25.6000 133.500 2 44 990 25.6000 133.600 TS 45 990 5 136
1996210N05156 1996 59 WP MM KIRK 1996-08-07 09:00:00 TS 25.4492 133.707 main 690 690 PPPP__________ WP131996 25.2274 133.780 60 0 25.6069 133.660 3 40 990 0 3 180 90 25.4849 133.622 2 44 990 25.4775 133.765 TS 45 990 4 138
1996210N05156 1996 59 WP MM KIRK 1996-08-07 12:00:00 TS 25.3250 133.825 40 990 tokyo main 704 704 OOOO__________ jtwc_wp WP131996 25.1000 133.900 60 0 25.4000 133.800 3 40 990 0 3 180 90 0 25.4000 133.700 2 44 990 25.4000 133.900 TS 45 990 3 140
1996210N05156 1996 59 WP MM KIRK 1996-08-07 15:00:00 TS 25.2212 133.915 main 719 719 PPPP__________ WP131996 24.9850 134.022 60 0 25.3000 133.807 3 40 990 0 3 180 90 25.3000 133.807 2 46 987 25.3000 134.023 TS 45 990 2 145
1996210N05156 1996 59 WP MM KIRK 1996-08-07 18:00:00 TS 25.1250 133.975 40 990 tokyo main 733 733 OOOO__________ jtwc_wp WP131996 24.9000 134.100 60 0 25.2000 133.800 3 40 990 0 3 180 90 0 25.2000 133.900 3 48 985 25.2000 134.100 TS 45 990 2 155
1996210N05156 1996 59 WP MM KIRK 1996-08-07 21:00:00 TS 24.9994 134.028 main 743 743 PPPP__________ WP131996 24.8350 134.122 62 0 24.9850 133.885 3 40 990 0 3 180 90 25.0925 133.980 3 48 985 25.0850 134.122 TS 47 987 2 164
1996210N05156 1996 59 WP MM KIRK 1996-08-08 00:00:00 TS 24.9000 134.050 40 990 tokyo main 758 754 OOOO__________ jtwc_wp WP131996 24.8000 134.100 65 1 24.8000 134.000 3 40 990 0 3 180 90 0 25.0000 134.000 3 48 985 25.0000 134.100 STS 50 985 1 174
1996210N05156 1996 59 WP MM KIRK 1996-08-08 03:00:00 TS 24.8688 134.046 main 754 754 PPPP__________ WP131996 24.7850 134.065 70 1 24.7625 134.137 3 42 987 0 3 165 120 24.9350 133.907 3 48 985 24.9925 134.073 STS 52 982 1 231
1996210N05156 1996 59 WP MM KIRK 1996-08-08 06:00:00 TS 24.8750 134.000 45 985 tokyo main 754 749 OOOO__________ jtwc_wp WP131996 24.8000 134.000 75 1 24.8000 134.200 3 45 985 0 9 150 150 0 24.9000 133.800 3 48 985 25.0000 134.000 STS 55 980 1 274
1996210N05156 1996 59 WP MM KIRK 1996-08-08 09:00:00 TS 24.8762 133.922 main 749 745 PPPP__________ WP131996 24.8350 133.922 77 1 24.8500 134.103 3 45 985 0 9 140 140 24.8850 133.807 3 48 985 24.9350 133.857 STS 57 977 2 278
1996210N05156 1996 59 WP MM KIRK 1996-08-08 12:00:00 TS 24.9000 133.800 45 985 tokyo main 745 741 OOOO__________ jtwc_wp WP131996 24.9000 133.800 80 1 24.9000 133.900 3 45 985 0 9 130 130 0 24.9000 133.800 3 48 985 24.9000 133.700 STS 60 975 3 287
1996210N05156 1996 59 WP MM KIRK 1996-08-08 15:00:00 TS 24.9512 133.651 main 731 723 PPPP__________ WP131996 25.0074 133.638 80 1 24.8851 133.657 3 45 985 0 9 130 130 24.9350 133.687 3 48 985 24.9774 133.622 STS 60 975 3 292
1996210N05156 1996 59 WP MM KIRK 1996-08-08 18:00:00 TS 25.0250 133.450 45 985 tokyo main 723 702 OOOO__________ jtwc_wp WP131996 25.1000 133.400 80 1 24.9000 133.400 3 45 985 0 9 130 130 0 25.0000 133.500 3 48 985 25.1000 133.500 STS 60 975 4 292
1996210N05156 1996 59 WP MM KIRK 1996-08-08 21:00:00 TS 25.1123 133.206 main 702 682 PPPP__________ WP131996 25.1226 133.065 80 1 25.0191 133.234 3 47 982 0 9 125 125 25.0924 133.280 3 53 982 25.2150 133.245 STS 62 972 5 289
1996210N05156 1996 59 WP MM KIRK 1996-08-09 00:00:00 TS 25.2000 132.900 50 980 tokyo main 682 662 OOOO__________ jtwc_wp WP131996 25.1000 132.700 80 1 25.2000 133.000 4 50 980 0 9 120 120 0 25.2000 133.000 3 58 980 25.3000 132.900 T 65 970 6 286
1996210N05156 1996 59 WP MM KIRK 1996-08-09 03:00:00 TS 25.2850 132.543 55 975 tokyo main 660 653 POPP__________ WP131996 25.0649 132.385 80 1 25.4000 132.600 4 55 975 9 30 30 9 150 150 0 25.3374 132.680 3 61 977 25.3376 132.508 T 65 970 6 277
1996210N05156 1996 59 WP MM KIRK 1996-08-09 06:00:00 TS 25.2750 132.200 55 975 tokyo main 653 650 OOOO__________ jtwc_wp WP131996 25.0000 132.100 80 1 25.4000 132.300 4 55 975 9 45 45 3 300 150 0 25.4000 132.300 4 64 975 25.3000 132.100 T 65 970 7 260
1996210N05156 1996 59 WP MM KIRK 1996-08-09 09:00:00 TS 25.1688 131.799 55 975 tokyo main 656 656 POPP__________ WP131996 24.9074 131.843 80 1 25.3000 131.800 4 55 975 9 45 45 3 300 150 0 25.2953 131.827 4 64 975 25.1725 131.727 T 65 970 7 246
1996210N05156 1996 59 WP MM KIRK 1996-08-09 12:00:00 TS 24.9750 131.450 55 975 tokyo main 674 673 OOOO__________ jtwc_wp WP131996 24.8000 131.600 80 1 25.0000 131.400 4 55 975 9 50 50 3 300 150 0 25.1000 131.400 4 64 975 25.0000 131.400 T 65 970 7 236
1996210N05156 1996 59 WP MM KIRK 1996-08-09 15:00:00 TS 24.8068 131.197 55 975 tokyo main 693 693 POPP__________ WP131996 24.7000 131.335 80 1 24.8000 131.200 4 55 975 9 50 50 3 300 150 0 24.8923 131.148 4 64 975 24.8350 131.105 T 65 970 5 231
1996210N05156 1996 59 WP MM KIRK 1996-08-09 18:00:00 TS 24.6500 131.000 60 975 tokyo main 704 704 OOOO__________ jtwc_wp WP131996 24.6000 131.100 80 1 24.6000 131.000 4 60 975 9 50 50 3 300 200 0 24.7000 131.000 4 64 975 24.7000 130.900 T 65 970 4 229
1996210N05156 1996 59 WP MM KIRK 1996-08-09 21:00:00 TS 24.5531 130.879 60 975 tokyo main 714 714 POPP__________ WP131996 24.4925 130.920 80 1 24.5000 130.900 4 60 975 9 50 50 3 300 200 0 24.5775 130.878 4 64 975 24.6424 130.820 T 65 970 3 226
1996210N05156 1996 59 WP MM KIRK 1996-08-10 00:00:00 TS 24.4750 130.800 60 975 tokyo main 725 725 OOOO__________ jtwc_wp WP131996 24.4000 130.800 80 1 24.4000 130.800 4 60 975 9 50 50 3 300 200 0 24.5000 130.800 4 64 975 24.6000 130.800 T 65 970 2 225
1996210N05156 1996 59 WP MM KIRK 1996-08-10 03:00:00 TS 24.4250 130.736 60 975 tokyo main 736 736 POPP__________ WP131996 24.3425 130.743 82 1 24.4000 130.700 4 60 975 9 50 50 3 300 200 0 24.4500 130.750 4 66 972 24.5075 130.750 T 65 970 1 220
1996210N05156 1996 59 WP MM KIRK 1996-08-10 06:00:00 TS 24.3750 130.700 65 970 tokyo main 736 736 OOOO__________ jtwc_wp WP131996 24.3000 130.700 85 2 24.4000 130.700 5 65 970 9 60 60 3 300 200 0 24.4000 130.700 4 68 970 24.4000 130.700 T 65 970 2 220
1996210N05156 1996 59 WP MM KIRK 1996-08-10 09:00:00 TS 24.2894 130.616 65 970 tokyo main 748 748 POPP__________ WP131996 24.2350 130.600 85 2 24.3000 130.600 5 65 970 9 60 60 3 300 200 0 24.3075 130.607 4 68 970 24.3150 130.658 T 67 967 2 223
1996210N05156 1996 59 WP MM KIRK 1996-08-10 12:00:00 TS 24.2000 130.525 65 970 tokyo main 759 759 OOOO__________ jtwc_wp WP131996 24.2000 130.500 85 2 24.2000 130.500 5 65 970 9 60 60 3 300 200 0 24.2000 130.500 4 68 970 24.2000 130.600 T 70 965 3 219
1996210N05156 1996 59 WP MM KIRK 1996-08-10 15:00:00 TS 24.0863 130.434 65 970 tokyo main 771 771 POPP__________ WP131996 24.2275 130.443 85 2 24.1000 130.400 5 65 970 9 60 60 3 300 200 0 24.0625 130.392 4 68 970 23.9550 130.500 T 70 965 2 222
1996210N05156 1996 59 WP MM KIRK 1996-08-10 18:00:00 TS 24.0500 130.375 65 970 tokyo main 771 771 OOOO__________ jtwc_wp WP131996 24.3000 130.400 85 2 24.1000 130.400 5 65 970 9 60 60 3 300 200 0 24.0000 130.300 4 68 970 23.8000 130.400 T 70 965 1 299
1996210N05156 1996 59 WP MM KIRK 1996-08-10 21:00:00 TS 24.1519 130.303 70 965 tokyo main 760 749 POPP__________ WP131996 24.3850 130.357 85 2 24.2000 130.300 5 70 965 9 70 70 3 300 180 0 24.0975 130.228 4 72 967 23.9250 130.328 T 72 962 3 343
1996210N05156 1996 59 WP MM KIRK 1996-08-11 00:00:00 TS 24.3250 130.275 70 965 tokyo main 749 726 OOOO__________ jtwc_wp WP131996 24.5000 130.300 85 2 24.3000 130.300 5 70 965 9 70 70 3 300 180 0 24.3000 130.200 4 77 965 24.2000 130.300 T 75 960 4 0
1996210N05156 1996 59 WP MM KIRK 1996-08-11 03:00:00 TS 24.5443 130.303 70 965 tokyo main 726 693 POPP__________ WP131996 24.6424 130.230 85 2 24.5000 130.300 5 70 965 9 90 90 3 300 180 0 24.5424 130.287 4 77 965 24.4924 130.395 T 75 960 5 0
1996210N05156 1996 59 WP MM KIRK 1996-08-11 06:00:00 TS 24.8000 130.275 70 965 tokyo main 693 672 OOOO__________ jtwc_wp WP131996 24.8000 130.100 85 2 24.8000 130.300 5 70 965 9 90 90 3 300 180 0 24.8000 130.300 4 77 965 24.8000 130.400 T 75 960 5 333
1996210N05156 1996 59 WP MM KIRK 1996-08-11 09:00:00 TS 25.0113 130.036 70 965 tokyo main 673 654 POPP__________ WP131996 24.9425 129.880 85 2 25.0000 130.100 5 70 965 9 90 90 3 300 180 0 25.0151 130.060 4 77 965 25.0877 130.103 T 75 960 7 305
1996210N05156 1996 59 WP MM KIRK 1996-08-11 12:00:00 TS 25.1750 129.675 70 965 tokyo main 654 647 OOOO__________ jtwc_wp WP131996 25.1000 129.600 85 2 25.1000 129.700 5 70 965 3 100 80 3 300 180 0 25.2000 129.700 4 77 965 25.3000 129.700 T 75 960 7 295
1996210N05156 1996 59 WP MM KIRK 1996-08-11 15:00:00 TS 25.2980 129.345 70 965 tokyo main 650 642 POPP__________ WP131996 25.2924 129.315 85 2 25.2000 129.300 5 70 965 3 100 80 3 300 180 0 25.3500 129.357 4 77 962 25.3498 129.407 T 75 960 6 295
1996210N05156 1996 59 WP MM KIRK 1996-08-11 18:00:00 TS 25.4500 129.025 70 965 tokyo main 636 623 OOOO__________ jtwc_wp WP131996 25.5000 129.000 85 2 25.4000 129.000 5 70 965 3 100 80 3 300 180 0 25.5000 129.000 4 77 960 25.4000 129.100 T 75 960 7 301
1996210N05156 1996 59 WP MM KIRK 1996-08-11 21:00:00 TS 25.6782 128.639 70 965 tokyo main 626 612 POPP__________ WP131996 25.6926 128.642 87 2 25.7000 128.600 5 70 965 3 100 80 3 300 180 0 25.6926 128.628 4 77 960 25.6277 128.685 T 75 960 8 305
1996210N05156 1996 59 WP MM KIRK 1996-08-12 00:00:00 TS 25.9000 128.300 70 960 tokyo main 615 602 OOOO__________ jtwc_wp WP131996 25.9000 128.300 90 2 25.9000 128.300 5 70 960 3 100 80 3 300 180 0 25.9000 128.300 4 77 960 25.9000 128.300 T 75 960 7 310
1996210N05156 1996 59 WP MM KIRK 1996-08-12 03:00:00 TS 26.1237 128.056 70 960 tokyo main 602 591 POPP__________ WP131996 26.1650 128.005 92 2 26.1000 128.100 5 70 960 9 100 100 3 375 200 0 26.1074 128.062 4 77 960 26.1224 128.055 T 75 960 6 318
1996210N05156 1996 59 WP MM KIRK 1996-08-12 06:00:00 TS 26.3250 127.875 70 960 tokyo main 591 584 OOOO__________ jtwc_wp WP131996 26.4000 127.800 95 2 26.3000 127.900 5 70 960 9 100 100 3 450 300 1 26.3000 127.900 4 77 960 26.3000 127.900 T 75 960 4 320
1996210N05156 1996 59 WP MM KIRK 1996-08-12 09:00:00 TS 26.4531 127.747 70 960 tokyo main 578 568 POPP__________ WP131996 26.4924 127.720 95 2 26.5000 127.700 5 70 960 9 100 100 3 450 300 0 26.4424 127.785 4 77 960 26.3774 127.785 T 75 960 3 328
1996210N05156 1996 59 WP MM KIRK 1996-08-12 12:00:00 TS 26.5750 127.700 70 960 tokyo main 568 552 OOOO__________ jtwc_wp WP131996 26.6000 127.700 95 2 26.6000 127.700 5 70 960 9 100 100 3 450 300 0 26.6000 127.700 4 77 960 26.5000 127.700 T 75 960 4 339
1996210N05156 1996 59 WP MM KIRK 1996-08-12 15:00:00 TS 26.8256 127.590 75 960 tokyo main 552 527 POPP__________ WP131996 26.8700 127.628 95 2 26.8000 127.600 5 75 960 9 100 100 3 450 300 0 26.8200 127.570 4 77 960 26.8125 127.563 T 75 960 6 345
1996210N05156 1996 59 WP MM KIRK 1996-08-12 18:00:00 TS 27.1500 127.525 75 960 tokyo main 517 483 OOOO__________ jtwc_wp WP131996 27.2000 127.600 95 2 27.1000 127.500 5 75 960 9 100 100 3 450 300 0 27.1000 127.500 4 77 960 27.2000 127.500 T 75 960 6 0
1996210N05156 1996 59 WP MM KIRK 1996-08-12 21:00:00 TS 27.4712 127.606 75 960 tokyo main 483 449 POPP__________ WP131996 27.4925 127.670 95 2 27.4000 127.600 5 75 960 9 100 100 3 450 300 0 27.4350 127.555 4 77 960 27.5575 127.597 T 75 960 7 16
1996210N05156 1996 59 WP MM KIRK 1996-08-13 00:00:00 TS 27.8250 127.750 75 960 tokyo main 444 411 OOOO__________ jtwc_wp WP131996 27.8000 127.800 95 2 27.8000 127.700 5 75 960 9 100 100 3 450 300 0 27.8000 127.700 4 77 960 27.9000 127.800 T 75 960 7 24
1996210N05156 1996 59 WP MM KIRK 1996-08-13 03:00:00 TS 28.1281 127.930 75 960 tokyo main 411 362 POPP__________ WP131996 28.0824 127.913 95 2 28.2000 127.900 5 75 960 9 100 100 3 450 300 0 28.0900 127.871 4 77 960 28.1400 128.036 T 77 957 8 26
1996210N05156 1996 59 WP MM KIRK 1996-08-13 06:00:00 TS 28.5500 128.150 75 960 tokyo main 348 282 OOOO__________ jtwc_wp WP131996 28.5000 128.100 95 2 28.7000 128.100 5 75 960 9 100 100 3 425 300 0 28.5000 128.100 4 77 960 28.5000 128.300 T 80 955 12 22
1996210N05156 1996 59 WP MM KIRK 1996-08-13 09:00:00 TS 29.2382 128.442 75 955 tokyo main 282 203 POPP__________ WP131996 29.2202 128.434 95 2 29.3000 128.400 5 75 955 9 100 100 3 425 300 0 29.2350 128.384 4 77 960 29.1975 128.550 T 82 952 15 20
1996210N05156 1996 59 WP MM KIRK 1996-08-13 12:00:00 TS 29.9750 128.750 75 955 tokyo main 189 138 OOOO__________ jtwc_wp WP131996 30.0000 128.800 95 2 29.9000 128.700 5 75 955 9 100 100 3 425 300 0 30.0000 128.700 4 77 960 30.0000 128.800 ST 85 950 14 21
1996210N05156 1996 59 WP MM KIRK 1996-08-13 15:00:00 TS 30.5272 129.007 75 955 tokyo main 138 88 POPP__________ WP131996 30.5796 129.036 95 2 30.4000 129.000 5 75 955 9 100 100 3 425 300 0 30.4497 128.972 4 77 960 30.6797 129.021 ST 82 952 12 23
1996210N05156 1996 59 WP MM KIRK 1996-08-13 18:00:00 TS 31.0500 129.275 75 955 tokyo main 86 57 OOOO__________ jtwc_wp WP131996 31.1000 129.300 95 2 30.9000 129.200 5 75 955 9 100 100 3 425 300 0 30.9000 129.300 4 77 960 31.3000 129.300 T 80 955 13 26
1996210N05156 1996 59 WP MM KIRK 1996-08-13 21:00:00 TS 31.6878 129.673 75 955 tokyo main 48 14 POPP__________ WP131996 31.6122 129.684 95 2 31.7000 129.600 5 75 955 9 100 100 3 425 300 0 31.6049 129.748 4 77 960 31.8343 129.662 T 77 957 15 33
1996210N05156 1996 59 WP MM KIRK 1996-08-14 00:00:00 TS 32.3500 130.250 75 960 tokyo main 21 9 OOOO__________ jtwc_wp WP131996 32.2000 130.200 95 2 32.4000 130.300 5 75 960 9 100 100 3 425 300 0 32.4000 130.300 4 77 960 32.4000 130.200 T 75 960 17 35
1996210N05156 1996 59 WP MM KIRK 1996-08-14 01:00:00 TS 32.6035 130.445 75 960 tokyo main 9 0 POPP__________ WP131996 32.4404 130.387 93 2 32.7000 130.500 5 75 960 9 100 100 3 425 300 1 32.6490 130.462 4 75 961 32.6246 130.430 T 72 961 19 36
1996210N05156 1996 59 WP MM KIRK 1996-08-14 03:00:00 TS 33.1073 130.899 70 965 tokyo main 0 0 POPP__________ WP131996 32.9692 130.811 90 2 33.2000 131.000 5 70 965 9 100 100 3 350 300 0 33.1476 130.819 4 72 965 33.1125 130.968 T 67 965 20 40
1996210N05156 1996 59 WP MM KIRK 1996-08-14 06:00:00 TS 33.8750 131.725 65 970 tokyo main 14 0 OOOO__________ jtwc_wp WP131996 33.8000 131.600 85 2 33.9000 131.800 5 65 970 9 90 90 3 350 300 1 33.9000 131.600 4 68 970 33.9000 131.900 STS 60 970 22 46
1996210N05156 1996 59 WP MM KIRK 1996-08-14 09:00:00 TS 34.6140 132.809 60 975 tokyo main 0 0 POPP__________ WP131996 34.5413 132.548 77 1 34.6000 132.900 4 60 975 9 90 90 3 350 300 0 34.6312 132.954 4 63 975 34.6835 132.835 STS 55 975 25 50
1996210N05156 1996 59 WP MM KIRK 1996-08-14 12:00:00 TS 35.5000 134.100 55 980 tokyo main 9 0 OOOO__________ jtwc_wp WP131996 35.3000 133.700 70 1 35.8000 134.400 4 55 980 9 80 80 3 300 250 0 35.4000 134.400 3 58 980 35.5000 133.900 STS 50 980 26 49
1996210N05156 1996 59 WP MM KIRK 1996-08-14 15:00:00 TS 36.3309 135.200 55 980 tokyo main 66 37 POPP__________ WP131996 36.1421 135.033 67 1 36.5000 135.300 4 55 980 9 80 80 3 300 250 0 36.3096 135.325 3 53 982 36.3720 135.140 STS 50 980 25 48
1996210N05156 1996 59 WP MM KIRK 1996-08-14 18:00:00 TS 37.1467 136.393 55 980 tokyo main 28 0 OOOO__________ jtwc_wp WP131996 37.0000 136.500 65 1 37.2000 136.300 4 55 980 9 80 80 3 300 250 0 37.2000 136.300 3 48 985 37.2000 136.500 STS 50 980 26 54
1996210N05156 1996 59 WP MM KIRK 1996-08-14 21:00:00 TS 37.8777 137.892 50 985 tokyo main 75 8 POPP__________ WP131996 37.8217 138.002 60 0 37.9000 137.900 4 50 985 0 3 300 250 1 37.9025 137.774 3 48 985 37.8954 137.892 STS 47 982 28 61
1996210N05156 1996 59 WP MM KIRK 1996-08-15 00:00:00 TS 38.5000 139.485 50 985 tokyo main 0 0 OOOO__________ jtwc_wp WP131996 38.6000 139.500 55 0 38.4000 139.500 4 50 985 0 3 300 250 1 38.5000 139.500 3 48 985 38.5000 139.300 TS 45 985 29 66
1996210N05156 1996 59 WP MM KIRK 1996-08-15 03:00:00 TS 39.0654 141.274 50 985 tokyo main 0 0 POP___________ WP131996 39.3207 140.933 52 0 38.8000 141.500 4 50 985 0 3 300 250 0 39.0756 141.390 3 43 985 TS 29 64
1996210N05156 1996 59 WP MM KIRK 1996-08-15 06:00:00 TS 39.7455 142.809 50 985 tokyo main 63 63 OOO___________ jtwc_wp WP131996 40.0000 142.300 50 0 39.6000 143.100 4 50 985 0 3 300 250 0 39.6000 143.100 2 38 985 24 59
1996210N05156 1996 59 WP MM KIRK 1996-08-15 09:00:00 TS 40.3290 143.990 45 985 tokyo main 178 175 POP___________ WP131996 40.6712 143.639 47 0 40.1000 144.200 3 45 985 0 3 250 200 0 40.1026 144.270 2 38 985 20 55
1996210N05156 1996 59 WP MM KIRK 1996-08-15 12:00:00 TS 40.9111 145.011 45 985 tokyo main 186 182 OOO___________ jtwc_wp WP131996 41.3000 144.900 45 0 40.6000 145.100 3 45 985 0 3 250 200 0 40.6000 145.100 2 38 985 17 51
1996210N05156 1996 59 WP MM KIRK 1996-08-15 15:00:00 TS 41.4033 145.741 main 182 166 PP____________ WP131996 41.8470 146.040 45 0 40.9597 145.441 3 45 985 0 3 250 200 2 15 50
1996210N05156 1996 59 WP MM KIRK 1996-08-15 18:00:00 TS 41.9000 146.600 45 985 tokyo main 170 165 OO____________ jtwc_wp WP131996 42.4000 147.200 45 0 41.4000 146.000 3 45 985 0 3 250 200 0 22 56
1996210N05156 1996 59 WP MM KIRK 1996-08-15 21:00:00 TS 42.6223 148.207 main 224 224 PP____________ WP131996 43.0476 148.512 42 0 42.1971 147.903 3 984 0 3 29 60
1996210N05156 1996 59 WP MM KIRK 1996-08-16 00:00:00 ET 43.3500 150.000 984 tokyo main 231 218 OO____________ jtwc_wp WP131996 43.7000 150.000 40 0 43.0000 150.000 6 984 0 0 0 26 60
1996210N05156 1996 59 WP MM KIRK 1996-08-16 03:00:00 ET 43.9627 151.351 main 222 222 PP____________ WP131996 44.3170 151.696 40 0 43.6084 151.006 6 984 0 0 21 62
1996210N05156 1996 59 WP MM KIRK 1996-08-16 06:00:00 ET 44.3429 152.643 984 tokyo main 260 258 OO____________ jtwc_wp WP131996 44.8000 153.500 40 0 44.0000 152.000 6 984 0 0 0 22 80
1996210N05156 1996 59 WP MM KIRK 1996-08-16 09:00:00 ET 44.3627 154.430 main 364 364 PP____________ WP131996 45.0690 155.269 40 0 44.0096 154.010 6 986 0 0 25 92
1996210N05156 1996 59 WP MM KIRK 1996-08-16 12:00:00 ET 44.2400 156.200 988 tokyo main 499 499 OO____________ jtwc_wp WP131996 45.2000 157.000 40 0 44.0000 156.000 6 988 0 0 0 19 88
1996210N05156 1996 59 WP MM KIRK 1996-08-16 15:00:00 ET 44.4188 157.149 main 555 555 _P____________ WP131996 -1 44.4188 157.149 6 988 0 0 15 59
1996210N05156 1996 59 WP MM KIRK 1996-08-16 18:00:00 ET 45.0000 158.000 988 tokyo main 588 563 _O____________ -1 45.0000 158.000 6 988 0 0 0 17 49
1996210N05156 1996 59 WP MM KIRK 1996-08-16 21:00:00 ET 45.4969 158.929 main 563 551 _P____________ -1 45.4969 158.929 6 990 0 0 17 54
1996210N05156 1996 59 WP MM KIRK 1996-08-17 00:00:00 ET 46.0000 160.000 992 tokyo main 555 550 _O____________ -1 46.0000 160.000 6 992 0 0 0 20 60
1996210N05156 1996 59 WP MM KIRK 1996-08-17 03:00:00 ET 46.5007 161.426 main 576 576 _P____________ -1 46.5007 161.426 6 993 0 0 23 64
1996210N05156 1996 59 WP MM KIRK 1996-08-17 06:00:00 ET 47.0000 163.000 994 tokyo main 629 629 _O____________ -1 47.0000 163.000 6 994 0 0 0 23 66
1996210N05156 1996 59 WP MM KIRK 1996-08-17 09:00:00 ET 47.4232 164.509 main 664 664 _P____________ -1 47.4232 164.509 6 995 0 0 23 64
1996210N05156 1996 59 WP MM KIRK 1996-08-17 12:00:00 ET 48.0000 166.000 996 tokyo main 701 683 _O____________ -1 48.0000 166.000 6 996 0 0 0 25 52
1996210N05156 1996 59 WP MM KIRK 1996-08-17 15:00:00 ET 48.9981 167.492 main 686 681 _P____________ -1 48.9981 167.492 6 997 0 0 28 45
1996210N05156 1996 59 WP MM KIRK 1996-08-17 18:00:00 ET 50.0000 169.000 998 tokyo main 698 698 _O____________ -1 50.0000 169.000 6 998 0 0 0 24 54
1996210N05156 1996 59 WP MM KIRK 1996-08-17 21:00:00 ET 50.4256 170.594 main 743 743 _P____________ -1 50.4256 170.594 6 997 0 0 21 62
1996210N05156 1996 59 WP MM KIRK 1996-08-18 00:00:00 ET 51.0000 172.000 996 tokyo main 777 754 _O____________ -1 51.0000 172.000 6 996 0 0 0 25 38
1996210N05156 1996 59 WP MM KIRK 1996-08-18 03:00:00 ET 52.4220 173.071 main 753 700 _P____________ -1 52.4220 173.071 6 996 0 0 32 22
1996210N05156 1996 59 WP MM KIRK 1996-08-18 06:00:00 ET 54.0000 174.000 996 tokyo main 690 602 _O____________ -1 54.0000 174.000 6 996 0 0 0 28 21
1996210N05156 1996 59 WP MM KIRK 1996-08-18 09:00:00 ET 55.0661 174.803 main 594 547 _P____________ -1 55.0661 174.803 6 996 0 0 23 30
1996210N05156 1996 59 WP MM KIRK 1996-08-18 12:00:00 ET 56.0000 176.000 996 tokyo main 545 537 _O____________ -1 56.0000 176.000 6 996 0 0 0 27 44
1996210N05156 1996 59 WP MM KIRK 1996-08-18 15:00:00 ET 56.9947 178.153 main 545 493 _P____________ -1 56.9947 178.153 6 995 0 0 34 54
1996210N05156 1996 59 EP CP KIRK 1996-08-18 18:00:00 ET 58.0000 181.000 main 485 _O____________ -1 58.0000 181.000 6 994 0 0 0 36 56

Digital Typhoon Data and Search

About IBTrACS Database

This database is a web-friendly format of International Best Track Archive for Climate Stewardship (IBTrACS), a global best track data archive curated by NOAA dating back to 1842.

Updated: 2021-11-26